South Lake Tahoe, CA (96150)

2:04 PM PDT on August 30, 2015 (GMT -0700)
North Upper Truckee | | Change Station
CLOSE
Current Station
Personal Weather Station
Location: South Lake Tahoe, CA
Elevation: 6549 ft
Nearby Weather Stations

Elev 6549 ft 38.86 °N, 120.04 °W | Updated 13 seconds ago

Clear
Clear
68.9 °F
Feels Like 68.9 °F
N
1.9
Wind Variable Wind from NNW
Gusts 5.0 mph

Today
High -- | Low -- °F
--% Chance of Precip.
Yesterday
High -- | Low -- °F
Precip. -- in
6:27 AM 7:33 PM
Full, 98% visible
Pressure 29.98 in
Visibility 10.0 miles
Clouds Clear
Dew Point 38 °F
Humidity 33%
Rainfall 0.00 in
Snow Depth Not available.
UV 10 out of 12
Pollen 8.50 out of 12
Air Quality Not available.
Flu Activity Not available.
METAR KTVL 302053Z AUTO 19010G16KT 10SM CLR 23/02 A3017 RMK AO2 SLP151 T02330022 58003
Pressure 29.98 in
Visibility 10.0 miles
Clouds Clear
Dew Point 38 °F
Humidity 33%
Rainfall 0.00 in
Snow Depth Not available.
UV 10 out of 12
Pollen 8.50 out of 12
Air Quality Not available.
Flu Activity Not available.
METAR KTVL 302053Z AUTO 19010G16KT 10SM CLR 23/02 A3017 RMK AO2 SLP151 T02330022 58003

10-Day Weather Forecast

×

Almanac

Astronomy

Aug. 30, 2015 Rise Set
Actual Time
Civil Twilight
Nautical Twilight
Astronomical Twilight
Moon
Length of Visible Light
Length of Day
Tomorrow will be .
, % of the Moon is Illuminated

Today's Extremes

State Highs State Lows

Community

WunderPhotos

Upload Photos

1,851,060 photos uploaded!

WunderBlogs® & News

Nearby

Air Quality

  Air Quality AQ Index Pollutant
Not available.

Snow Depth

Station Depth Elevation

Earthquake Activity

City Distance Mag. Time & Date
Minimum magnitude displayed is 2.5.

Coastal Water Temperatures

Place Temperature

Stations

Nearby Weather Stations

Station Location Temp. Windchill Dew Point Humidity Wind Precip. Elev Updated Type